sensor_id;sensor_type;location;lat;lon;timestamp;P1;durP1;ratioP1;P2;durP2;ratioP2
1995;SDS011;38556;47.068;15.408;2023-05-10T00:01:19;21.50;;;20.05;;
1995;SDS011;38556;47.068;15.408;2023-05-10T00:03:46;20.23;;;19.13;;
1995;SDS011;38556;47.068;15.408;2023-05-10T00:06:14;21.05;;;19.85;;
1995;SDS011;38556;47.068;15.408;2023-05-10T00:08:43;22.48;;;20.85;;
1995;SDS011;38556;47.068;15.408;2023-05-10T00:11:11;21.08;;;19.70;;
1995;SDS011;38556;47.068;15.408;2023-05-10T00:13:38;21.80;;;20.40;;
1995;SDS011;38556;47.068;15.408;2023-05-10T00:16:06;21.60;;;20.13;;
1995;SDS011;38556;47.068;15.408;2023-05-10T00:18:33;21.23;;;19.85;;
1995;SDS011;38556;47.068;15.408;2023-05-10T00:21:01;21.13;;;19.92;;
1995;SDS011;38556;47.068;15.408;2023-05-10T00:23:28;22.48;;;20.75;;
1995;SDS011;38556;47.068;15.408;2023-05-10T00:25:57;21.33;;;20.10;;
1995;SDS011;38556;47.068;15.408;2023-05-10T00:28:24;21.70;;;20.40;;
1995;SDS011;38556;47.068;15.408;2023-05-10T00:30:51;21.25;;;19.95;;
1995;SDS011;38556;47.068;15.408;2023-05-10T00:33:18;21.30;;;20.00;;
1995;SDS011;38556;47.068;15.408;2023-05-10T00:35:46;21.10;;;19.85;;
1995;SDS011;38556;47.068;15.408;2023-05-10T00:38:13;21.13;;;19.83;;
1995;SDS011;38556;47.068;15.408;2023-05-10T00:40:41;22.83;;;21.42;;
1995;SDS011;38556;47.068;15.408;2023-05-10T00:43:10;21.40;;;19.98;;
1995;SDS011;38556;47.068;15.408;2023-05-10T00:45:38;21.77;;;20.13;;
1995;SDS011;38556;47.068;15.408;2023-05-10T00:48:07;21.70;;;19.85;;
1995;SDS011;38556;47.068;15.408;2023-05-10T00:50:34;21.70;;;20.27;;
1995;SDS011;38556;47.068;15.408;2023-05-10T00:53:02;21.25;;;20.05;;
1995;SDS011;38556;47.068;15.408;2023-05-10T00:55:29;21.42;;;19.90;;
1995;SDS011;38556;47.068;15.408;2023-05-10T00:57:57;20.50;;;19.40;;
1995;SDS011;38556;47.068;15.408;2023-05-10T01:00:26;21.08;;;19.88;;
1995;SDS011;38556;47.068;15.408;2023-05-10T01:02:54;21.00;;;19.73;;
1995;SDS011;38556;47.068;15.408;2023-05-10T01:05:21;20.95;;;19.75;;
1995;SDS011;38556;47.068;15.408;2023-05-10T01:07:48;21.30;;;19.95;;
1995;SDS011;38556;47.068;15.408;2023-05-10T01:10:15;20.85;;;19.63;;
1995;SDS011;38556;47.068;15.408;2023-05-10T01:12:45;20.40;;;19.10;;
1995;SDS011;38556;47.068;15.408;2023-05-10T01:15:13;21.13;;;19.63;;
1995;SDS011;38556;47.068;15.408;2023-05-10T01:17:44;21.02;;;19.73;;
1995;SDS011;38556;47.068;15.408;2023-05-10T01:20:12;21.02;;;19.83;;
1995;SDS011;38556;47.068;15.408;2023-05-10T01:22:50;21.70;;;20.40;;
1995;SDS011;38556;47.068;15.408;2023-05-10T01:28:39;21.50;;;20.20;;
1995;SDS011;38556;47.068;15.408;2023-05-10T01:31:22;21.45;;;20.05;;
1995;SDS011;38556;47.068;15.408;2023-05-10T01:34:05;21.42;;;20.02;;
1995;SDS011;38556;47.068;15.408;2023-05-10T01:36:37;21.20;;;19.90;;
1995;SDS011;38556;47.068;15.408;2023-05-10T01:39:10;22.10;;;20.65;;
1995;SDS011;38556;47.068;15.408;2023-05-10T01:41:44;22.02;;;20.73;;
1995;SDS011;38556;47.068;15.408;2023-05-10T01:44:20;20.98;;;19.48;;
1995;SDS011;38556;47.068;15.408;2023-05-10T01:46:57;20.83;;;19.65;;
1995;SDS011;38556;47.068;15.408;2023-05-10T01:49:34;21.85;;;20.45;;
1995;SDS011;38556;47.068;15.408;2023-05-10T01:52:06;20.80;;;19.50;;
1995;SDS011;38556;47.068;15.408;2023-05-10T01:54:37;21.45;;;20.15;;
1995;SDS011;38556;47.068;15.408;2023-05-10T01:57:07;21.38;;;20.17;;
1995;SDS011;38556;47.068;15.408;2023-05-10T01:59:38;21.15;;;19.85;;
1995;SDS011;38556;47.068;15.408;2023-05-10T02:02:07;21.48;;;19.98;;
1995;SDS011;38556;47.068;15.408;2023-05-10T02:04:39;21.20;;;19.90;;
1995;SDS011;38556;47.068;15.408;2023-05-10T02:07:07;20.95;;;19.65;;
1995;SDS011;38556;47.068;15.408;2023-05-10T02:09:35;20.55;;;19.45;;
1995;SDS011;38556;47.068;15.408;2023-05-10T02:12:05;22.42;;;21.15;;
1995;SDS011;38556;47.068;15.408;2023-05-10T02:14:34;22.88;;;21.58;;
1995;SDS011;38556;47.068;15.408;2023-05-10T02:17:04;22.25;;;20.95;;
1995;SDS011;38556;47.068;15.408;2023-05-10T02:19:32;22.35;;;21.00;;
1995;SDS011;38556;47.068;15.408;2023-05-10T02:22:03;21.67;;;20.27;;
1995;SDS011;38556;47.068;15.408;2023-05-10T02:24:31;22.23;;;20.73;;
1995;SDS011;38556;47.068;15.408;2023-05-10T02:27:00;21.70;;;20.30;;
1995;SDS011;38556;47.068;15.408;2023-05-10T02:29:29;22.42;;;20.92;;
1995;SDS011;38556;47.068;15.408;2023-05-10T02:31:59;21.10;;;19.92;;
1995;SDS011;38556;47.068;15.408;2023-05-10T02:34:27;22.10;;;20.83;;
1995;SDS011;38556;47.068;15.408;2023-05-10T02:36:55;21.25;;;20.08;;
1995;SDS011;38556;47.068;15.408;2023-05-10T02:39:24;21.38;;;20.15;;
1995;SDS011;38556;47.068;15.408;2023-05-10T02:41:54;22.58;;;20.98;;
1995;SDS011;38556;47.068;15.408;2023-05-10T02:44:23;22.63;;;21.13;;
1995;SDS011;38556;47.068;15.408;2023-05-10T02:46:53;22.00;;;20.70;;
1995;SDS011;38556;47.068;15.408;2023-05-10T02:49:22;22.85;;;21.45;;
1995;SDS011;38556;47.068;15.408;2023-05-10T02:51:50;22.98;;;21.02;;
1995;SDS011;38556;47.068;15.408;2023-05-10T02:54:24;22.10;;;20.80;;
1995;SDS011;38556;47.068;15.408;2023-05-10T02:56:56;23.10;;;21.48;;
1995;SDS011;38556;47.068;15.408;2023-05-10T02:59:25;21.60;;;20.20;;
1995;SDS011;38556;47.068;15.408;2023-05-10T03:01:53;22.75;;;21.08;;
1995;SDS011;38556;47.068;15.408;2023-05-10T03:04:20;22.27;;;20.88;;
1995;SDS011;38556;47.068;15.408;2023-05-10T03:06:48;21.65;;;20.35;;
1995;SDS011;38556;47.068;15.408;2023-05-10T03:09:15;21.85;;;20.55;;
1995;SDS011;38556;47.068;15.408;2023-05-10T03:11:49;22.40;;;21.20;;
1995;SDS011;38556;47.068;15.408;2023-05-10T03:14:28;23.48;;;22.08;;
1995;SDS011;38556;47.068;15.408;2023-05-10T03:17:06;22.70;;;21.30;;
1995;SDS011;38556;47.068;15.408;2023-05-10T03:19:39;22.05;;;20.75;;
1995;SDS011;38556;47.068;15.408;2023-05-10T03:22:16;21.77;;;20.48;;
1995;SDS011;38556;47.068;15.408;2023-05-10T03:24:50;22.15;;;20.75;;
1995;SDS011;38556;47.068;15.408;2023-05-10T03:27:21;23.38;;;21.80;;
1995;SDS011;38556;47.068;15.408;2023-05-10T03:29:51;21.42;;;20.25;;
1995;SDS011;38556;47.068;15.408;2023-05-10T03:32:19;22.85;;;21.45;;
1995;SDS011;38556;47.068;15.408;2023-05-10T03:34:47;22.65;;;21.33;;
1995;SDS011;38556;47.068;15.408;2023-05-10T03:37:14;22.80;;;21.25;;
1995;SDS011;38556;47.068;15.408;2023-05-10T03:39:41;23.30;;;21.80;;
1995;SDS011;38556;47.068;15.408;2023-05-10T03:42:08;22.60;;;21.05;;
1995;SDS011;38556;47.068;15.408;2023-05-10T03:44:38;23.25;;;21.42;;
1995;SDS011;38556;47.068;15.408;2023-05-10T03:47:06;22.38;;;20.98;;
1995;SDS011;38556;47.068;15.408;2023-05-10T03:49:32;21.17;;;19.80;;
1995;SDS011;38556;47.068;15.408;2023-05-10T03:52:00;21.70;;;20.48;;
1995;SDS011;38556;47.068;15.408;2023-05-10T03:54:27;23.23;;;21.73;;
1995;SDS011;38556;47.068;15.408;2023-05-10T03:56:55;22.17;;;20.88;;
1995;SDS011;38556;47.068;15.408;2023-05-10T03:59:22;22.38;;;20.88;;
1995;SDS011;38556;47.068;15.408;2023-05-10T04:01:51;24.17;;;22.73;;
1995;SDS011;38556;47.068;15.408;2023-05-10T04:04:18;23.05;;;21.45;;
1995;SDS011;38556;47.068;15.408;2023-05-10T04:06:46;22.48;;;21.17;;
1995;SDS011;38556;47.068;15.408;2023-05-10T04:09:13;22.40;;;21.20;;
1995;SDS011;38556;47.068;15.408;2023-05-10T04:11:42;22.80;;;21.50;;
1995;SDS011;38556;47.068;15.408;2023-05-10T04:14:09;24.25;;;22.65;;
1995;SDS011;38556;47.068;15.408;2023-05-10T04:16:37;23.00;;;21.70;;
1995;SDS011;38556;47.068;15.408;2023-05-10T04:19:05;24.58;;;22.92;;
1995;SDS011;38556;47.068;15.408;2023-05-10T04:21:33;24.83;;;23.13;;
1995;SDS011;38556;47.068;15.408;2023-05-10T04:24:00;23.02;;;21.55;;
1995;SDS011;38556;47.068;15.408;2023-05-10T04:26:27;23.65;;;22.15;;
1995;SDS011;38556;47.068;15.408;2023-05-10T04:28:54;23.00;;;21.52;;
1995;SDS011;38556;47.068;15.408;2023-05-10T04:31:21;23.95;;;22.55;;
1995;SDS011;38556;47.068;15.408;2023-05-10T04:33:48;22.13;;;20.83;;
1995;SDS011;38556;47.068;15.408;2023-05-10T04:36:18;22.98;;;21.38;;
1995;SDS011;38556;47.068;15.408;2023-05-10T04:38:45;23.88;;;22.17;;
1995;SDS011;38556;47.068;15.408;2023-05-10T04:41:12;23.73;;;22.27;;
1995;SDS011;38556;47.068;15.408;2023-05-10T04:43:39;22.75;;;21.42;;
1995;SDS011;38556;47.068;15.408;2023-05-10T04:46:06;21.92;;;20.35;;
1995;SDS011;38556;47.068;15.408;2023-05-10T04:48:33;23.60;;;22.10;;
1995;SDS011;38556;47.068;15.408;2023-05-10T04:51:01;22.58;;;20.90;;
1995;SDS011;38556;47.068;15.408;2023-05-10T04:53:30;22.48;;;20.90;;
1995;SDS011;38556;47.068;15.408;2023-05-10T04:55:57;22.38;;;21.02;;
1995;SDS011;38556;47.068;15.408;2023-05-10T04:58:25;23.77;;;22.30;;
1995;SDS011;38556;47.068;15.408;2023-05-10T05:00:52;22.90;;;21.10;;
1995;SDS011;38556;47.068;15.408;2023-05-10T05:03:19;24.27;;;22.77;;
1995;SDS011;38556;47.068;15.408;2023-05-10T05:05:46;23.77;;;22.38;;
1995;SDS011;38556;47.068;15.408;2023-05-10T05:08:14;24.02;;;21.95;;
1995;SDS011;38556;47.068;15.408;2023-05-10T05:10:42;22.80;;;21.45;;
1995;SDS011;38556;47.068;15.408;2023-05-10T05:13:09;22.08;;;20.70;;
1995;SDS011;38556;47.068;15.408;2023-05-10T05:15:38;22.67;;;21.35;;
1995;SDS011;38556;47.068;15.408;2023-05-10T05:18:05;22.80;;;21.50;;
1995;SDS011;38556;47.068;15.408;2023-05-10T05:20:33;23.20;;;21.60;;
1995;SDS011;38556;47.068;15.408;2023-05-10T05:23:00;22.92;;;21.40;;
1995;SDS011;38556;47.068;15.408;2023-05-10T05:25:28;22.15;;;20.85;;
1995;SDS011;38556;47.068;15.408;2023-05-10T05:27:56;23.00;;;21.52;;
1995;SDS011;38556;47.068;15.408;2023-05-10T05:30:23;24.73;;;22.88;;
1995;SDS011;38556;47.068;15.408;2023-05-10T05:32:50;22.95;;;21.45;;
1995;SDS011;38556;47.068;15.408;2023-05-10T05:35:18;23.67;;;22.17;;
1995;SDS011;38556;47.068;15.408;2023-05-10T05:37:46;23.55;;;22.00;;
1995;SDS011;38556;47.068;15.408;2023-05-10T05:40:13;24.55;;;22.92;;
1995;SDS011;38556;47.068;15.408;2023-05-10T05:42:41;23.05;;;21.30;;
1995;SDS011;38556;47.068;15.408;2023-05-10T05:45:09;22.35;;;21.15;;
1995;SDS011;38556;47.068;15.408;2023-05-10T05:47:38;23.55;;;21.92;;
1995;SDS011;38556;47.068;15.408;2023-05-10T05:50:06;23.98;;;22.20;;
1995;SDS011;38556;47.068;15.408;2023-05-10T05:52:34;22.10;;;20.80;;
1995;SDS011;38556;47.068;15.408;2023-05-10T05:55:01;23.90;;;22.40;;
1995;SDS011;38556;47.068;15.408;2023-05-10T05:57:29;24.85;;;23.10;;
1995;SDS011;38556;47.068;15.408;2023-05-10T05:59:56;24.20;;;22.55;;
1995;SDS011;38556;47.068;15.408;2023-05-10T06:02:25;23.73;;;22.25;;
1995;SDS011;38556;47.068;15.408;2023-05-10T06:04:52;23.20;;;21.73;;
1995;SDS011;38556;47.068;15.408;2023-05-10T06:07:19;24.27;;;22.55;;
1995;SDS011;38556;47.068;15.408;2023-05-10T06:09:46;23.40;;;21.55;;
1995;SDS011;38556;47.068;15.408;2023-05-10T06:12:14;22.95;;;21.40;;
1995;SDS011;38556;47.068;15.408;2023-05-10T06:14:41;24.00;;;22.60;;
1995;SDS011;38556;47.068;15.408;2023-05-10T06:17:09;24.55;;;22.35;;
1995;SDS011;38556;47.068;15.408;2023-05-10T06:19:37;23.58;;;22.27;;
1995;SDS011;38556;47.068;15.408;2023-05-10T06:22:05;23.38;;;22.08;;
1995;SDS011;38556;47.068;15.408;2023-05-10T06:24:32;25.15;;;23.75;;
1995;SDS011;38556;47.068;15.408;2023-05-10T06:26:59;24.48;;;23.00;;
1995;SDS011;38556;47.068;15.408;2023-05-10T06:29:27;25.20;;;23.50;;
1995;SDS011;38556;47.068;15.408;2023-05-10T06:31:54;25.83;;;24.05;;
1995;SDS011;38556;47.068;15.408;2023-05-10T06:34:21;24.45;;;22.95;;
1995;SDS011;38556;47.068;15.408;2023-05-10T06:36:50;24.65;;;23.20;;
1995;SDS011;38556;47.068;15.408;2023-05-10T06:39:18;28.23;;;26.48;;
1995;SDS011;38556;47.068;15.408;2023-05-10T06:41:45;24.95;;;23.38;;
1995;SDS011;38556;47.068;15.408;2023-05-10T06:44:12;26.60;;;24.70;;
1995;SDS011;38556;47.068;15.408;2023-05-10T06:46:40;25.17;;;23.40;;
1995;SDS011;38556;47.068;15.408;2023-05-10T06:49:08;24.98;;;23.27;;
1995;SDS011;38556;47.068;15.408;2023-05-10T06:51:35;26.15;;;24.10;;
1995;SDS011;38556;47.068;15.408;2023-05-10T06:54:04;25.50;;;23.60;;
1995;SDS011;38556;47.068;15.408;2023-05-10T06:56:32;25.33;;;23.63;;
1995;SDS011;38556;47.068;15.408;2023-05-10T06:58:59;24.77;;;23.15;;
1995;SDS011;38556;47.068;15.408;2023-05-10T07:01:27;25.30;;;23.70;;
1995;SDS011;38556;47.068;15.408;2023-05-10T07:03:54;25.02;;;23.42;;
1995;SDS011;38556;47.068;15.408;2023-05-10T07:06:21;24.65;;;23.20;;
1995;SDS011;38556;47.068;15.408;2023-05-10T07:08:48;25.35;;;23.70;;
1995;SDS011;38556;47.068;15.408;2023-05-10T07:11:17;24.70;;;23.30;;
1995;SDS011;38556;47.068;15.408;2023-05-10T07:13:44;25.00;;;23.40;;
1995;SDS011;38556;47.068;15.408;2023-05-10T07:16:12;25.05;;;23.35;;
1995;SDS011;38556;47.068;15.408;2023-05-10T07:18:39;25.30;;;23.77;;
1995;SDS011;38556;47.068;15.408;2023-05-10T07:21:07;25.27;;;23.55;;
1995;SDS011;38556;47.068;15.408;2023-05-10T07:23:34;25.77;;;24.08;;
1995;SDS011;38556;47.068;15.408;2023-05-10T07:26:01;25.50;;;23.98;;
1995;SDS011;38556;47.068;15.408;2023-05-10T07:28:30;27.05;;;25.10;;
1995;SDS011;38556;47.068;15.408;2023-05-10T07:30:57;26.60;;;25.00;;
1995;SDS011;38556;47.068;15.408;2023-05-10T07:33:24;26.80;;;24.80;;
1995;SDS011;38556;47.068;15.408;2023-05-10T07:35:52;25.95;;;24.40;;
1995;SDS011;38556;47.068;15.408;2023-05-10T07:38:19;25.17;;;23.60;;
1995;SDS011;38556;47.068;15.408;2023-05-10T07:40:46;25.52;;;24.02;;
1995;SDS011;38556;47.068;15.408;2023-05-10T07:43:13;24.50;;;23.00;;
1995;SDS011;38556;47.068;15.408;2023-05-10T07:45:42;25.48;;;23.77;;
1995;SDS011;38556;47.068;15.408;2023-05-10T07:48:09;25.23;;;23.70;;
1995;SDS011;38556;47.068;15.408;2023-05-10T07:50:37;25.25;;;23.77;;
1995;SDS011;38556;47.068;15.408;2023-05-10T07:53:04;25.67;;;24.08;;
1995;SDS011;38556;47.068;15.408;2023-05-10T07:55:31;25.50;;;23.65;;
1995;SDS011;38556;47.068;15.408;2023-05-10T07:57:59;25.63;;;24.13;;
1995;SDS011;38556;47.068;15.408;2023-05-10T08:00:27;26.25;;;24.55;;
1995;SDS011;38556;47.068;15.408;2023-05-10T08:02:56;25.50;;;23.95;;
1995;SDS011;38556;47.068;15.408;2023-05-10T08:05:23;25.15;;;23.75;;
1995;SDS011;38556;47.068;15.408;2023-05-10T08:07:50;26.52;;;24.60;;
1995;SDS011;38556;47.068;15.408;2023-05-10T08:10:18;26.27;;;24.67;;
1995;SDS011;38556;47.068;15.408;2023-05-10T08:12:45;25.07;;;23.60;;
1995;SDS011;38556;47.068;15.408;2023-05-10T08:15:12;26.10;;;24.47;;
1995;SDS011;38556;47.068;15.408;2023-05-10T08:17:40;24.93;;;23.13;;
1995;SDS011;38556;47.068;15.408;2023-05-10T08:20:09;25.30;;;23.80;;
1995;SDS011;38556;47.068;15.408;2023-05-10T08:22:38;23.50;;;22.20;;
1995;SDS011;38556;47.068;15.408;2023-05-10T08:25:05;24.53;;;23.13;;
1995;SDS011;38556;47.068;15.408;2023-05-10T08:27:33;23.90;;;22.50;;
1995;SDS011;38556;47.068;15.408;2023-05-10T08:30:00;24.70;;;23.40;;
1995;SDS011;38556;47.068;15.408;2023-05-10T08:32:28;25.97;;;24.47;;
1995;SDS011;38556;47.068;15.408;2023-05-10T08:34:55;23.80;;;22.40;;
1995;SDS011;38556;47.068;15.408;2023-05-10T08:37:24;24.30;;;22.80;;
1995;SDS011;38556;47.068;15.408;2023-05-10T08:39:51;25.30;;;23.80;;
1995;SDS011;38556;47.068;15.408;2023-05-10T08:42:19;25.03;;;23.53;;
1995;SDS011;38556;47.068;15.408;2023-05-10T08:44:48;24.93;;;23.53;;
1995;SDS011;38556;47.068;15.408;2023-05-10T08:47:16;25.37;;;23.77;;
1995;SDS011;38556;47.068;15.408;2023-05-10T08:49:45;24.43;;;22.83;;
1995;SDS011;38556;47.068;15.408;2023-05-10T08:52:14;24.40;;;22.90;;
1995;SDS011;38556;47.068;15.408;2023-05-10T08:54:43;23.30;;;21.90;;
1995;SDS011;38556;47.068;15.408;2023-05-10T08:57:11;22.67;;;21.40;;
1995;SDS011;38556;47.068;15.408;2023-05-10T08:59:38;22.27;;;21.00;;
1995;SDS011;38556;47.068;15.408;2023-05-10T09:02:06;23.43;;;21.97;;
1995;SDS011;38556;47.068;15.408;2023-05-10T09:04:38;22.43;;;21.13;;
1995;SDS011;38556;47.068;15.408;2023-05-10T09:07:05;24.67;;;23.17;;
1995;SDS011;38556;47.068;15.408;2023-05-10T09:09:33;24.70;;;23.10;;
1995;SDS011;38556;47.068;15.408;2023-05-10T09:12:03;23.07;;;21.67;;
1995;SDS011;38556;47.068;15.408;2023-05-10T09:14:30;23.37;;;22.07;;
1995;SDS011;38556;47.068;15.408;2023-05-10T09:17:01;23.03;;;21.60;;
1995;SDS011;38556;47.068;15.408;2023-05-10T09:19:28;23.00;;;21.70;;
1995;SDS011;38556;47.068;15.408;2023-05-10T09:21:56;23.57;;;22.27;;
1995;SDS011;38556;47.068;15.408;2023-05-10T09:24:25;24.40;;;22.93;;
1995;SDS011;38556;47.068;15.408;2023-05-10T09:26:53;23.30;;;21.90;;
1995;SDS011;38556;47.068;15.408;2023-05-10T09:29:24;23.37;;;21.80;;
1995;SDS011;38556;47.068;15.408;2023-05-10T09:31:51;22.17;;;20.97;;
1995;SDS011;38556;47.068;15.408;2023-05-10T09:34:20;23.37;;;22.07;;
1995;SDS011;38556;47.068;15.408;2023-05-10T09:36:55;22.90;;;21.70;;
1995;SDS011;38556;47.068;15.408;2023-05-10T09:39:32;23.60;;;22.27;;
1995;SDS011;38556;47.068;15.408;2023-05-10T09:42:01;22.67;;;21.37;;
1995;SDS011;38556;47.068;15.408;2023-05-10T09:44:31;23.20;;;22.00;;
1995;SDS011;38556;47.068;15.408;2023-05-10T09:47:00;23.70;;;22.03;;
1995;SDS011;38556;47.068;15.408;2023-05-10T09:49:27;23.10;;;21.80;;
1995;SDS011;38556;47.068;15.408;2023-05-10T09:52:01;23.37;;;21.97;;
1995;SDS011;38556;47.068;15.408;2023-05-10T09:54:30;23.57;;;22.23;;
1995;SDS011;38556;47.068;15.408;2023-05-10T09:56:58;21.20;;;20.00;;
1995;SDS011;38556;47.068;15.408;2023-05-10T09:59:27;23.30;;;21.90;;
1995;SDS011;38556;47.068;15.408;2023-05-10T10:01:57;23.10;;;21.80;;
1995;SDS011;38556;47.068;15.408;2023-05-10T10:04:26;24.60;;;23.20;;
1995;SDS011;38556;47.068;15.408;2023-05-10T10:07:00;24.00;;;22.50;;
1995;SDS011;38556;47.068;15.408;2023-05-10T10:09:29;23.27;;;22.07;;
1995;SDS011;38556;47.068;15.408;2023-05-10T10:11:56;24.87;;;23.37;;
1995;SDS011;38556;47.068;15.408;2023-05-10T10:14:24;22.63;;;21.43;;
1995;SDS011;38556;47.068;15.408;2023-05-10T10:16:52;24.17;;;22.77;;
1995;SDS011;38556;47.068;15.408;2023-05-10T10:19:21;24.53;;;22.83;;
1995;SDS011;38556;47.068;15.408;2023-05-10T10:21:49;23.43;;;22.03;;
1995;SDS011;38556;47.068;15.408;2023-05-10T10:24:17;23.87;;;22.57;;
1995;SDS011;38556;47.068;15.408;2023-05-10T10:26:44;22.97;;;21.80;;
1995;SDS011;38556;47.068;15.408;2023-05-10T10:29:20;21.87;;;20.67;;
1995;SDS011;38556;47.068;15.408;2023-05-10T10:31:54;20.40;;;19.40;;
1995;SDS011;38556;47.068;15.408;2023-05-10T10:34:29;23.47;;;22.07;;
1995;SDS011;38556;47.068;15.408;2023-05-10T10:36:57;23.17;;;21.87;;
1995;SDS011;38556;47.068;15.408;2023-05-10T10:39:30;24.00;;;22.60;;
1995;SDS011;38556;47.068;15.408;2023-05-10T10:41:58;23.73;;;22.33;;
1995;SDS011;38556;47.068;15.408;2023-05-10T10:44:33;23.10;;;21.83;;
1995;SDS011;38556;47.068;15.408;2023-05-10T10:47:02;22.50;;;21.40;;
1995;SDS011;38556;47.068;15.408;2023-05-10T10:49:42;23.80;;;22.40;;
1995;SDS011;38556;47.068;15.408;2023-05-10T10:52:20;25.27;;;23.77;;
1995;SDS011;38556;47.068;15.408;2023-05-10T10:54:52;24.30;;;23.00;;
1995;SDS011;38556;47.068;15.408;2023-05-10T10:57:24;24.43;;;23.13;;
1995;SDS011;38556;47.068;15.408;2023-05-10T11:00:00;23.90;;;22.30;;
1995;SDS011;38556;47.068;15.408;2023-05-10T11:02:45;22.83;;;21.53;;
1995;SDS011;38556;47.068;15.408;2023-05-10T11:05:38;22.63;;;21.43;;
1995;SDS011;38556;47.068;15.408;2023-05-10T11:08:07;22.50;;;21.20;;
1995;SDS011;38556;47.068;15.408;2023-05-10T11:10:48;23.90;;;21.47;;
1995;SDS011;38556;47.068;15.408;2023-05-10T11:13:29;25.07;;;23.47;;
1995;SDS011;38556;47.068;15.408;2023-05-10T11:15:58;24.80;;;23.20;;
1995;SDS011;38556;47.068;15.408;2023-05-10T11:18:35;22.60;;;21.20;;
1995;SDS011;38556;47.068;15.408;2023-05-10T11:21:07;23.43;;;22.07;;
1995;SDS011;38556;47.068;15.408;2023-05-10T11:23:47;23.93;;;22.50;;
1995;SDS011;38556;47.068;15.408;2023-05-10T11:26:16;25.23;;;23.83;;
1995;SDS011;38556;47.068;15.408;2023-05-10T11:28:44;25.43;;;23.73;;
1995;SDS011;38556;47.068;15.408;2023-05-10T11:31:13;23.27;;;22.03;;
1995;SDS011;38556;47.068;15.408;2023-05-10T11:33:44;29.10;;;26.73;;
1995;SDS011;38556;47.068;15.408;2023-05-10T11:36:15;24.60;;;23.20;;
1995;SDS011;38556;47.068;15.408;2023-05-10T11:38:43;24.93;;;23.40;;
1995;SDS011;38556;47.068;15.408;2023-05-10T11:41:11;23.63;;;22.43;;
1995;SDS011;38556;47.068;15.408;2023-05-10T11:43:39;23.63;;;22.40;;
1995;SDS011;38556;47.068;15.408;2023-05-10T11:46:07;23.70;;;22.40;;
1995;SDS011;38556;47.068;15.408;2023-05-10T11:48:36;23.93;;;22.37;;
1995;SDS011;38556;47.068;15.408;2023-05-10T11:51:06;24.60;;;23.20;;
1995;SDS011;38556;47.068;15.408;2023-05-10T11:53:35;24.40;;;22.90;;
1995;SDS011;38556;47.068;15.408;2023-05-10T11:56:03;24.43;;;22.73;;
1995;SDS011;38556;47.068;15.408;2023-05-10T11:58:31;25.87;;;24.23;;
1995;SDS011;38556;47.068;15.408;2023-05-10T12:00:59;23.93;;;22.73;;
1995;SDS011;38556;47.068;15.408;2023-05-10T12:03:27;24.70;;;23.30;;
1995;SDS011;38556;47.068;15.408;2023-05-10T12:05:56;24.60;;;23.30;;
1995;SDS011;38556;47.068;15.408;2023-05-10T12:08:24;25.40;;;24.10;;
1995;SDS011;38556;47.068;15.408;2023-05-10T12:11:06;24.87;;;23.47;;
1995;SDS011;38556;47.068;15.408;2023-05-10T12:13:37;31.53;;;29.00;;
1995;SDS011;38556;47.068;15.408;2023-05-10T12:16:15;31.03;;;28.30;;
1995;SDS011;38556;47.068;15.408;2023-05-10T12:18:44;26.40;;;24.60;;
1995;SDS011;38556;47.068;15.408;2023-05-10T12:21:11;26.60;;;24.83;;
1995;SDS011;38556;47.068;15.408;2023-05-10T12:23:39;26.40;;;24.57;;
1995;SDS011;38556;47.068;15.408;2023-05-10T12:26:08;24.70;;;22.57;;
1995;SDS011;38556;47.068;15.408;2023-05-10T12:28:37;24.40;;;23.10;;
1995;SDS011;38556;47.068;15.408;2023-05-10T12:31:05;23.50;;;22.20;;
1995;SDS011;38556;47.068;15.408;2023-05-10T12:33:35;23.87;;;22.57;;
1995;SDS011;38556;47.068;15.408;2023-05-10T12:36:06;24.60;;;23.10;;
1995;SDS011;38556;47.068;15.408;2023-05-10T12:38:35;23.17;;;21.97;;
1995;SDS011;38556;47.068;15.408;2023-05-10T12:41:04;24.40;;;22.77;;
1995;SDS011;38556;47.068;15.408;2023-05-10T12:43:34;23.10;;;21.90;;
1995;SDS011;38556;47.068;15.408;2023-05-10T12:46:06;24.30;;;23.00;;
1995;SDS011;38556;47.068;15.408;2023-05-10T12:48:34;23.53;;;22.23;;
1995;SDS011;38556;47.068;15.408;2023-05-10T12:51:02;23.70;;;22.40;;
1995;SDS011;38556;47.068;15.408;2023-05-10T12:53:30;24.67;;;23.27;;
1995;SDS011;38556;47.068;15.408;2023-05-10T12:55:58;22.80;;;21.70;;
1995;SDS011;38556;47.068;15.408;2023-05-10T12:58:25;25.23;;;23.20;;
1995;SDS011;38556;47.068;15.408;2023-05-10T13:00:54;23.70;;;22.37;;
1995;SDS011;38556;47.068;15.408;2023-05-10T13:03:22;22.43;;;21.03;;
1995;SDS011;38556;47.068;15.408;2023-05-10T13:05:50;23.83;;;22.33;;
1995;SDS011;38556;47.068;15.408;2023-05-10T13:08:17;23.43;;;21.97;;
1995;SDS011;38556;47.068;15.408;2023-05-10T13:10:45;24.60;;;23.20;;
1995;SDS011;38556;47.068;15.408;2023-05-10T13:13:12;23.57;;;22.30;;
1995;SDS011;38556;47.068;15.408;2023-05-10T13:15:39;23.93;;;22.53;;
1995;SDS011;38556;47.068;15.408;2023-05-10T13:18:08;22.97;;;21.30;;
1995;SDS011;38556;47.068;15.408;2023-05-10T13:20:35;22.20;;;20.90;;
1995;SDS011;38556;47.068;15.408;2023-05-10T13:23:03;24.23;;;22.90;;
1995;SDS011;38556;47.068;15.408;2023-05-10T13:25:30;24.37;;;22.80;;
1995;SDS011;38556;47.068;15.408;2023-05-10T13:27:58;23.27;;;21.97;;
1995;SDS011;38556;47.068;15.408;2023-05-10T13:30:26;23.10;;;21.80;;
1995;SDS011;38556;47.068;15.408;2023-05-10T13:32:54;22.83;;;21.43;;
1995;SDS011;38556;47.068;15.408;2023-05-10T13:35:23;23.00;;;21.80;;
1995;SDS011;38556;47.068;15.408;2023-05-10T13:37:50;23.10;;;21.70;;
1995;SDS011;38556;47.068;15.408;2023-05-10T13:40:19;23.47;;;22.00;;
1995;SDS011;38556;47.068;15.408;2023-05-10T13:42:46;23.00;;;21.77;;
1995;SDS011;38556;47.068;15.408;2023-05-10T13:45:13;23.00;;;21.33;;
1995;SDS011;38556;47.068;15.408;2023-05-10T13:47:40;21.80;;;20.40;;
1995;SDS011;38556;47.068;15.408;2023-05-10T13:50:07;22.67;;;21.53;;
1995;SDS011;38556;47.068;15.408;2023-05-10T13:52:36;23.03;;;21.80;;
1995;SDS011;38556;47.068;15.408;2023-05-10T13:55:04;21.07;;;19.90;;
1995;SDS011;38556;47.068;15.408;2023-05-10T13:57:32;22.53;;;21.33;;
1995;SDS011;38556;47.068;15.408;2023-05-10T14:00:01;22.97;;;21.67;;
1995;SDS011;38556;47.068;15.408;2023-05-10T14:02:28;23.13;;;21.93;;
1995;SDS011;38556;47.068;15.408;2023-05-10T14:04:55;23.80;;;22.37;;
1995;SDS011;38556;47.068;15.408;2023-05-10T14:07:22;22.50;;;21.30;;
1995;SDS011;38556;47.068;15.408;2023-05-10T14:09:51;22.30;;;20.90;;
1995;SDS011;38556;47.068;15.408;2023-05-10T14:12:18;22.33;;;21.10;;
1995;SDS011;38556;47.068;15.408;2023-05-10T14:14:46;22.50;;;21.30;;
1995;SDS011;38556;47.068;15.408;2023-05-10T14:17:13;22.30;;;20.60;;
1995;SDS011;38556;47.068;15.408;2023-05-10T14:19:40;22.03;;;20.63;;
1995;SDS011;38556;47.068;15.408;2023-05-10T14:22:07;22.27;;;21.07;;
1995;SDS011;38556;47.068;15.408;2023-05-10T14:24:35;21.93;;;20.83;;
1995;SDS011;38556;47.068;15.408;2023-05-10T14:27:04;22.37;;;21.17;;
1995;SDS011;38556;47.068;15.408;2023-05-10T14:29:31;23.00;;;21.90;;
1995;SDS011;38556;47.068;15.408;2023-05-10T14:31:59;22.53;;;21.33;;
1995;SDS011;38556;47.068;15.408;2023-05-10T14:34:26;22.33;;;20.87;;